Time;durP1;ratioP1;P1;durP2;ratioP2;P2;SDS_P1;SDS_P2;PMS_P1;PMS_P2;Temp;Humidity;BMP_temperature;BMP_pressure;BME280_temperature;BME280_humidity;BME280_pressure;Samples;Min_cycle;Max_cycle;Signal;HPM_P1;HPM_P2
2023/04/25 00:01:25;;;;;;;38.72;26.50;;;12.70;99.90;;;;;;5046794;28;20079;-73
2023/04/25 00:03:52;;;;;;;33.95;25.92;;;12.70;99.90;;;;;;5057700;28;20510;-73
2023/04/25 00:06:20;;;;;;;38.42;26.42;;;12.70;99.90;;;;;;5046933;28;20045;-71
2023/04/25 00:08:47;;;;;;;37.17;27.05;;;12.70;99.90;;;;;;5055689;28;20051;-72
2023/04/25 00:11:16;;;;;;;39.17;28.05;;;12.70;99.90;;;;;;5056190;28;20070;-72
2023/04/25 00:13:43;;;;;;;39.33;28.80;;;12.70;99.90;;;;;;5046524;28;20052;-72
2023/04/25 00:16:13;;;;;;;39.60;28.90;;;12.70;99.90;;;;;;5056513;28;20048;-72
2023/04/25 00:18:40;;;;;;;40.67;28.60;;;12.70;99.90;;;;;;5055907;28;20147;-72
2023/04/25 00:21:08;;;;;;;33.10;23.92;;;12.70;99.90;;;;;;5055637;28;20036;-74
2023/04/25 00:23:36;;;;;;;33.28;23.08;;;12.80;99.90;;;;;;5065351;28;20051;-71
2023/04/25 00:26:04;;;;;;;30.25;21.65;;;12.80;99.90;;;;;;5046997;28;20048;-72
2023/04/25 00:28:33;;;;;;;24.23;18.10;;;12.90;99.90;;;;;;5064009;28;20041;-72
2023/04/25 00:31:00;;;;;;;21.35;15.52;;;12.90;99.90;;;;;;5061210;28;20041;-72
2023/04/25 00:33:28;;;;;;;19.13;13.40;;;12.90;99.90;;;;;;5046066;28;20049;-72
2023/04/25 00:35:56;;;;;;;21.38;13.38;;;13.00;99.90;;;;;;5048850;28;20067;-73
2023/04/25 00:38:23;;;;;;;17.42;11.82;;;13.00;99.90;;;;;;5066497;28;20052;-71
2023/04/25 00:40:51;;;;;;;18.40;12.38;;;13.10;99.90;;;;;;5066339;28;20402;-72
2023/04/25 00:43:18;;;;;;;17.23;10.73;;;13.10;99.90;;;;;;5066569;28;20040;-73
2023/04/25 00:45:51;;;;;;;13.30;9.75;;;13.10;99.90;;;;;;5067527;28;20036;-71
2023/04/25 00:48:19;;;;;;;13.43;9.27;;;13.10;99.90;;;;;;5044740;28;20135;-73
2023/04/25 00:50:52;;;;;;;16.67;10.07;;;13.10;99.90;;;;;;5047803;28;20094;-72
2023/04/25 00:53:20;;;;;;;13.70;9.57;;;13.00;99.90;;;;;;5066920;28;20068;-73
2023/04/25 00:55:48;;;;;;;14.38;9.43;;;13.00;99.90;;;;;;5049570;28;20044;-74
2023/04/25 00:58:15;;;;;;;11.75;8.32;;;13.00;99.90;;;;;;5066011;28;20518;-72
2023/04/25 01:00:43;;;;;;;11.30;8.27;;;12.90;99.90;;;;;;5066664;28;20032;-74
2023/04/25 01:03:12;;;;;;;12.63;8.00;;;12.90;99.90;;;;;;5067825;28;20048;-71
2023/04/25 01:05:41;;;;;;;12.02;8.57;;;12.80;99.90;;;;;;5069675;28;20370;-73
2023/04/25 01:08:09;;;;;;;16.30;8.63;;;12.80;99.90;;;;;;5069969;28;20044;-71
2023/04/25 01:10:38;;;;;;;16.67;8.23;;;12.80;99.90;;;;;;5066349;28;20239;-73
2023/04/25 01:13:05;;;;;;;10.68;7.45;;;12.80;99.90;;;;;;5072496;28;20058;-71
2023/04/25 01:15:33;;;;;;;10.43;7.15;;;12.80;99.90;;;;;;5078501;28;20086;-73
2023/04/25 01:18:01;;;;;;;13.32;7.65;;;12.80;99.90;;;;;;5064448;28;20037;-74
2023/04/25 01:20:32;;;;;;;7.97;6.40;;;12.80;99.90;;;;;;5064389;28;20048;-71
2023/04/25 01:23:02;;;;;;;9.20;6.50;;;12.80;99.90;;;;;;5069898;28;20057;-73
2023/04/25 01:25:31;;;;;;;9.30;6.38;;;12.70;99.90;;;;;;5072158;23;20127;-72
2023/04/25 01:27:59;;;;;;;8.00;5.88;;;12.70;99.90;;;;;;5060470;28;20133;-72
2023/04/25 01:30:28;;;;;;;6.38;4.70;;;12.70;99.90;;;;;;5060634;28;20060;-72
2023/04/25 01:32:57;;;;;;;9.20;4.40;;;12.70;99.90;;;;;;5060984;28;20286;-73
2023/04/25 01:35:25;;;;;;;7.72;4.80;;;12.70;99.90;;;;;;5060044;28;20266;-74
2023/04/25 01:37:54;;;;;;;10.18;4.70;;;12.60;99.90;;;;;;5082454;28;20029;-73
2023/04/25 01:40:25;;;;;;;6.68;4.45;;;12.60;99.90;;;;;;5063198;28;20108;-73
2023/04/25 01:42:52;;;;;;;8.10;4.78;;;12.60;99.90;;;;;;5062487;28;20079;-73
2023/04/25 01:45:21;;;;;;;9.45;5.60;;;12.60;99.90;;;;;;5061615;28;20074;-73
2023/04/25 01:47:50;;;;;;;14.20;6.88;;;12.60;99.90;;;;;;5063034;28;20102;-73
2023/04/25 01:50:19;;;;;;;17.92;9.82;;;12.70;99.90;;;;;;5062776;28;20495;-74
2023/04/25 01:52:47;;;;;;;20.52;12.00;;;12.70;99.90;;;;;;5064973;28;20502;-73
2023/04/25 01:55:15;;;;;;;27.05;13.90;;;12.60;99.90;;;;;;5066284;28;20036;-73
2023/04/25 01:58:09;;;;;;;27.38;12.88;;;12.60;99.90;;;;;;5086116;28;20104;-74
2023/04/25 02:01:08;;;;;;;38.63;18.23;;;12.60;99.90;;;;;;5053942;28;20040;-74
2023/04/25 02:03:44;;;;;;;34.13;18.20;;;12.50;99.90;;;;;;5079112;28;20048;-74
2023/04/25 02:06:21;;;;;;;28.88;15.68;;;12.40;99.90;;;;;;5059368;28;20812;-73
2023/04/25 02:08:50;;;;;;;20.85;9.38;;;12.30;99.90;;;;;;5059986;28;20125;-73
2023/04/25 02:11:18;;;;;;;16.80;9.00;;;12.20;99.90;;;;;;5060308;28;20072;-73
2023/04/25 02:14:10;;;;;;;14.57;7.13;;;12.00;99.90;;;;;;5064810;28;20075;-72
2023/04/25 02:16:53;;;;;;;18.23;6.82;;;11.90;99.90;;;;;;5061350;28;20075;-71
2023/04/25 02:19:21;;;;;;;10.23;4.20;;;11.70;99.90;;;;;;5059998;28;20090;-74
2023/04/25 02:21:48;;;;;;;9.18;5.25;;;11.70;99.90;;;;;;5059749;28;20036;-72
2023/04/25 02:24:16;;;;;;;10.30;5.50;;;11.60;99.90;;;;;;5061841;28;20037;-73
2023/04/25 02:26:43;;;;;;;7.60;4.30;;;11.60;99.90;;;;;;5081043;28;20059;-73
2023/04/25 02:29:12;;;;;;;6.53;3.88;;;11.60;99.90;;;;;;5065239;28;20044;-73
2023/04/25 02:31:40;;;;;;;5.32;2.85;;;11.60;99.90;;;;;;5063187;28;20048;-73
2023/04/25 02:34:07;;;;;;;6.55;3.25;;;11.60;99.90;;;;;;5067328;28;20048;-73
2023/04/25 02:36:37;;;;;;;6.10;3.30;;;11.50;99.90;;;;;;5083575;28;20049;-74
2023/04/25 02:39:05;;;;;;;4.10;2.50;;;11.50;99.90;;;;;;5064355;28;20052;-73
2023/04/25 02:41:32;;;;;;;4.05;2.35;;;11.50;99.90;;;;;;5065367;28;20105;-74
2023/04/25 02:44:00;;;;;;;2.45;1.25;;;11.40;99.90;;;;;;5064223;28;20139;-72
2023/04/25 02:46:28;;;;;;;2.35;1.30;;;11.20;99.90;;;;;;5076516;28;20115;-73
2023/04/25 02:48:56;;;;;;;2.70;1.63;;;11.20;99.90;;;;;;5058643;28;20047;-72
2023/04/25 02:51:23;;;;;;;2.50;1.30;;;11.10;99.90;;;;;;5077779;28;20535;-72
2023/04/25 02:53:51;;;;;;;1.77;0.90;;;11.10;99.90;;;;;;5059163;28;20061;-72
2023/04/25 02:56:18;;;;;;;1.48;0.80;;;11.00;99.90;;;;;;5061227;28;20626;-73
2023/04/25 02:58:46;;;;;;;3.10;1.25;;;10.90;99.90;;;;;;5059256;28;20086;-72
2023/04/25 03:01:13;;;;;;;3.33;1.30;;;10.90;99.90;;;;;;5057143;28;20434;-72
2023/04/25 03:03:42;;;;;;;3.42;1.20;;;10.90;99.90;;;;;;5059723;28;20067;-72
2023/04/25 03:06:10;;;;;;;3.90;1.88;;;10.90;99.90;;;;;;5077656;28;20039;-72
2023/04/25 03:08:38;;;;;;;3.00;1.70;;;10.90;99.90;;;;;;5059813;28;20044;-73
2023/04/25 03:11:05;;;;;;;3.70;1.80;;;10.80;99.90;;;;;;5059628;28;20058;-73
2023/04/25 03:13:32;;;;;;;5.97;3.03;;;10.90;99.90;;;;;;5077541;28;20044;-73
2023/04/25 03:16:00;;;;;;;5.72;4.00;;;10.80;99.90;;;;;;5060415;28;20044;-73
2023/04/25 03:18:28;;;;;;;5.22;3.40;;;10.80;99.90;;;;;;5058995;28;20036;-74
2023/04/25 03:20:57;;;;;;;3.78;1.80;;;10.80;99.90;;;;;;5059238;28;20480;-74
2023/04/25 03:23:25;;;;;;;2.95;1.90;;;10.80;99.90;;;;;;5077804;28;20059;-73
2023/04/25 03:25:53;;;;;;;3.08;1.92;;;10.70;99.90;;;;;;5056799;28;20492;-72
2023/04/25 03:28:20;;;;;;;5.50;2.50;;;10.70;99.90;;;;;;5078433;28;20044;-72
2023/04/25 03:30:48;;;;;;;3.65;2.10;;;10.70;99.90;;;;;;5057779;28;20040;-72
2023/04/25 03:33:16;;;;;;;4.60;2.35;;;10.70;99.90;;;;;;5077181;28;20051;-74
2023/04/25 03:35:43;;;;;;;4.35;2.40;;;10.70;99.90;;;;;;5085253;28;20044;-73
2023/04/25 03:38:12;;;;;;;4.70;2.45;;;10.70;99.90;;;;;;5058439;28;20050;-73
2023/04/25 03:40:41;;;;;;;4.15;2.17;;;10.70;99.90;;;;;;5059159;28;20142;-74
2023/04/25 03:43:25;;;;;;;3.97;2.40;;;10.70;99.90;;;;;;5073785;28;20055;-73
2023/04/25 03:45:59;;;;;;;4.57;2.60;;;10.60;99.90;;;;;;5080455;28;20055;-72
2023/04/25 03:48:27;;;;;;;4.45;2.90;;;10.60;99.90;;;;;;5072879;28;20520;-73
2023/04/25 03:50:55;;;;;;;4.28;3.17;;;10.60;99.90;;;;;;5059258;28;20052;-73
2023/04/25 03:53:25;;;;;;;4.72;3.20;;;10.50;99.90;;;;;;5058994;28;20679;-74
2023/04/25 03:56:18;;;;;;;6.55;3.20;;;10.50;99.90;;;;;;5078526;28;20068;-76
2023/04/25 03:58:47;;;;;;;5.55;2.92;;;10.50;99.90;;;;;;5060639;28;20056;-75
2023/04/25 04:01:19;;;;;;;4.80;2.90;;;10.50;99.90;;;;;;5060015;28;20135;-74
2023/04/25 04:03:46;;;;;;;8.57;2.92;;;10.50;99.90;;;;;;5076214;28;20051;-74
2023/04/25 04:06:14;;;;;;;3.50;2.65;;;10.50;99.90;;;;;;5058654;28;20089;-75
2023/04/25 04:08:47;;;;;;;4.70;2.97;;;10.50;99.90;;;;;;5058057;28;20048;-75
2023/04/25 04:11:14;;;;;;;6.45;3.40;;;10.40;99.90;;;;;;5057301;28;20553;-75
2023/04/25 04:13:42;;;;;;;5.63;3.78;;;10.40;99.90;;;;;;5082329;28;20570;-75
2023/04/25 04:16:10;;;;;;;10.43;4.38;;;10.40;99.90;;;;;;5081274;28;20481;-74
2023/04/25 04:18:38;;;;;;;8.07;4.10;;;10.50;99.90;;;;;;5073682;28;20048;-74
2023/04/25 04:21:42;;;;;;;8.57;3.95;;;10.40;99.90;;;;;;5071249;28;20036;-74
2023/04/25 04:24:12;;;;;;;8.05;3.85;;;10.40;99.90;;;;;;5065999;28;20032;-75
2023/04/25 04:27:08;;;;;;;5.20;3.30;;;10.40;99.90;;;;;;5072926;28;20045;-75
2023/04/25 04:29:48;;;;;;;6.35;4.28;;;10.40;99.90;;;;;;5065327;28;20040;-75
2023/04/25 04:32:27;;;;;;;7.32;3.50;;;10.50;99.90;;;;;;5056147;28;20055;-74
2023/04/25 04:34:55;;;;;;;13.45;9.25;;;10.50;99.90;;;;;;5060725;28;20047;-73
2023/04/25 04:37:24;;;;;;;6.15;4.40;;;10.50;99.90;;;;;;5065811;28;20093;-74
2023/04/25 04:39:53;;;;;;;8.13;4.60;;;10.50;99.90;;;;;;5062352;28;20044;-74
2023/04/25 04:42:29;;;;;;;6.50;3.30;;;10.50;99.90;;;;;;5098650;28;20040;-74
2023/04/25 04:45:22;;;;;;;7.50;3.90;;;10.50;99.90;;;;;;5077693;28;20064;-73
2023/04/25 04:48:21;;;;;;;;;;;10.50;99.90;;;;;;5056095;28;20054;-73
2023/04/25 04:51:05;;;;;;;9.40;4.28;;;10.50;99.90;;;;;;5081801;28;20010;-74
2023/04/25 04:53:51;;;;;;;6.90;4.32;;;10.60;99.90;;;;;;5084552;28;20376;-73
2023/04/25 04:56:39;;;;;;;6.53;4.38;;;10.60;99.90;;;;;;5083278;28;20043;-75
2023/04/25 04:59:18;;;;;;;7.10;3.47;;;10.60;99.90;;;;;;5066386;28;20032;-75
2023/04/25 05:02:11;;;;;;;6.47;3.80;;;10.70;99.90;;;;;;5078023;28;20044;-73
2023/04/25 05:05:01;;;;;;;8.00;4.53;;;10.70;99.90;;;;;;5064422;28;20139;-76
2023/04/25 05:07:48;;;;;;;8.07;4.88;;;10.70;99.90;;;;;;5082331;28;20369;-74
2023/04/25 05:10:32;;;;;;;10.65;5.72;;;10.70;99.90;;;;;;5063757;28;20045;-74
2023/04/25 05:13:21;;;;;;;12.95;7.07;;;10.80;99.90;;;;;;5079565;28;20148;-74
2023/04/25 05:16:05;;;;;;;18.00;9.93;;;10.80;99.90;;;;;;5062671;28;20082;-73
2023/04/25 05:18:41;;;;;;;16.33;9.90;;;10.80;99.90;;;;;;5081535;28;20235;-73
2023/04/25 05:21:24;;;;;;;15.80;10.15;;;10.70;99.90;;;;;;5080745;28;20056;-74
2023/04/25 05:24:10;;;;;;;21.90;14.43;;;10.70;99.90;;;;;;5080483;28;20047;-76
2023/04/25 05:27:18;;;;;;;25.15;15.23;;;10.80;99.90;;;;;;4998285;28;20202;-73
2023/04/25 05:30:22;;;;;;;25.83;15.93;;;10.80;99.90;;;;;;4978321;28;20034;-74
2023/04/25 05:33:00;;;;;;;29.10;14.68;;;10.90;99.90;;;;;;5051482;28;20041;-75
2023/04/25 05:35:28;;;;;;;18.30;12.15;;;11.00;99.90;;;;;;5064750;28;20047;-74
2023/04/25 05:37:56;;;;;;;19.80;11.40;;;11.10;99.90;;;;;;5062171;28;20052;-75
2023/04/25 05:40:36;;;;;;;18.67;10.30;;;11.20;99.90;;;;;;5061803;28;20097;-74
2023/04/25 05:43:19;;;;;;;15.55;9.23;;;11.20;99.90;;;;;;5080735;28;20044;-75
2023/04/25 05:46:04;;;;;;;16.27;8.15;;;11.40;99.90;;;;;;5061754;28;20046;-72
2023/04/25 05:48:43;;;;;;;13.10;7.00;;;11.50;99.90;;;;;;5078946;28;20114;-73
2023/04/25 05:51:22;;;;;;;13.43;7.15;;;11.50;99.90;;;;;;5064324;28;20101;-73
2023/04/25 05:54:18;;;;;;;10.45;7.15;;;11.70;99.90;;;;;;5049228;28;20357;-73
2023/04/25 05:56:46;;;;;;;13.60;8.23;;;11.90;99.90;;;;;;5060904;28;20036;-74
2023/04/25 05:59:14;;;;;;;13.70;8.80;;;12.10;99.90;;;;;;5063413;28;20060;-73
2023/04/25 06:01:43;;;;;;;10.70;6.90;;;12.20;99.90;;;;;;5061791;28;20044;-73
2023/04/25 06:04:12;;;;;;;9.55;5.20;;;12.40;99.90;;;;;;5060164;28;20045;-75
2023/04/25 06:06:39;;;;;;;9.27;5.63;;;12.60;99.90;;;;;;5062589;28;20145;-74
2023/04/25 06:09:07;;;;;;;13.25;7.25;;;12.70;99.90;;;;;;5059819;28;20122;-75
2023/04/25 06:11:34;;;;;;;10.82;5.65;;;12.80;99.90;;;;;;5078913;28;20062;-74
2023/04/25 06:14:02;;;;;;;10.68;6.97;;;12.90;99.90;;;;;;5078332;28;20136;-74
2023/04/25 06:16:31;;;;;;;11.15;6.97;;;13.10;99.90;;;;;;5060760;28;20130;-74
2023/04/25 06:19:00;;;;;;;9.45;5.97;;;13.20;99.90;;;;;;5062359;28;20051;-73
2023/04/25 06:21:28;;;;;;;13.00;5.38;;;13.40;99.90;;;;;;5075775;28;20053;-74
2023/04/25 06:23:56;;;;;;;9.07;5.47;;;13.40;99.90;;;;;;5079704;28;20142;-73
2023/04/25 06:26:24;;;;;;;8.55;5.10;;;13.50;99.90;;;;;;5047177;28;20079;-75
2023/04/25 06:28:53;;;;;;;9.18;4.90;;;13.50;99.90;;;;;;5046452;28;20045;-76
2023/04/25 06:31:20;;;;;;;8.65;4.97;;;13.70;99.90;;;;;;5046563;28;20041;-74
2023/04/25 06:33:54;;;;;;;8.82;5.65;;;13.80;99.90;;;;;;5046608;28;20052;-74
2023/04/25 06:36:25;;;;;;;12.10;6.15;;;13.80;99.90;;;;;;5048096;28;20040;-75
2023/04/25 06:38:55;;;;;;;14.30;7.40;;;13.80;99.90;;;;;;5048340;28;20037;-73
2023/04/25 06:41:22;;;;;;;13.30;7.03;;;14.00;99.90;;;;;;5046713;28;20040;-73
2023/04/25 06:43:50;;;;;;;13.27;8.02;;;14.30;99.90;;;;;;5047848;28;20051;-73
2023/04/25 06:46:26;;;;;;;14.10;8.63;;;14.60;99.90;;;;;;5047964;28;20041;-75
2023/04/25 06:48:55;;;;;;;19.92;12.30;;;14.70;99.90;;;;;;5052072;28;20037;-74
2023/04/25 06:51:24;;;;;;;17.20;12.57;;;14.70;99.90;;;;;;5046543;28;20047;-75
2023/04/25 06:53:51;;;;;;;19.88;12.82;;;14.80;99.90;;;;;;5045525;28;20069;-74
2023/04/25 06:56:30;;;;;;;17.83;12.70;;;14.80;99.90;;;;;;5048108;28;20040;-73
2023/04/25 06:59:12;;;;;;;21.83;16.20;;;14.80;99.90;;;;;;5051566;28;20834;-74
2023/04/25 07:01:41;;;;;;;25.23;20.88;;;14.80;99.90;;;;;;5051932;28;20053;-75
2023/04/25 07:04:18;;;;;;;24.25;20.38;;;14.60;99.90;;;;;;5038238;28;20092;-74
2023/04/25 07:06:52;;;;;;;27.77;17.08;;;14.60;99.90;;;;;;5048284;28;20041;-73
2023/04/25 07:09:28;;;;;;;28.45;17.70;;;14.90;99.90;;;;;;5052477;28;20101;-76
2023/04/25 07:11:56;;;;;;;27.92;20.33;;;15.00;99.90;;;;;;5045396;28;20132;-74
2023/04/25 07:14:26;;;;;;;27.33;21.10;;;15.30;99.90;;;;;;5046072;28;20048;-73
2023/04/25 07:16:55;;;;;;;29.60;20.98;;;15.40;99.90;;;;;;5048753;28;20041;-74
2023/04/25 07:19:26;;;;;;;33.50;24.75;;;15.10;99.90;;;;;;5046687;28;20051;-73
2023/04/25 07:21:55;;;;;;;34.20;23.02;;;14.90;99.90;;;;;;5045322;28;20037;-73
2023/04/25 07:24:26;;;;;;;28.27;20.55;;;15.30;99.90;;;;;;5049472;28;20045;-74
2023/04/25 07:26:56;;;;;;;30.67;21.27;;;15.60;99.90;;;;;;5059663;28;20052;-73
2023/04/25 07:29:48;;;;;;;26.40;17.55;;;15.60;99.90;;;;;;5082168;28;20047;-75
2023/04/25 07:32:16;;;;;;;27.23;19.52;;;15.60;99.90;;;;;;5064940;28;20062;-73
2023/04/25 07:34:43;;;;;;;27.83;19.30;;;15.50;99.90;;;;;;5078544;28;20055;-73
2023/04/25 07:37:13;;;;;;;26.98;17.48;;;15.60;99.90;;;;;;5061667;28;20136;-73
2023/04/25 07:39:55;;;;;;;23.75;15.70;;;15.80;99.90;;;;;;5061299;28;20044;-76
2023/04/25 07:42:23;;;;;;;21.50;14.13;;;15.90;99.90;;;;;;5060519;28;20120;-77
2023/04/25 07:44:51;;;;;;;24.45;16.65;;;15.80;99.90;;;;;;5060154;28;20044;-76
2023/04/25 07:47:20;;;;;;;23.05;17.00;;;16.10;99.90;;;;;;5058168;28;20054;-75
2023/04/25 07:49:49;;;;;;;25.13;18.42;;;16.20;99.90;;;;;;5080357;28;20100;-81
2023/04/25 07:52:18;;;;;;;26.58;18.80;;;16.30;99.90;;;;;;5059964;28;20119;-73
2023/04/25 07:54:52;;;;;;;25.65;17.85;;;16.60;99.90;;;;;;5060105;28;20497;-73
2023/04/25 07:57:27;;;;;;;23.70;17.70;;;16.70;99.90;;;;;;5066977;28;20304;-73
2023/04/25 07:59:58;;;;;;;27.52;20.30;;;16.90;99.90;;;;;;5064646;28;20036;-74
2023/04/25 08:02:28;;;;;;;30.13;20.50;;;17.00;99.90;;;;;;5062273;28;20067;-72
2023/04/25 08:04:56;;;;;;;25.50;18.35;;;16.80;99.90;;;;;;5063683;28;20054;-73
2023/04/25 08:07:25;;;;;;;24.08;17.67;;;17.20;99.90;;;;;;5078190;28;20106;-72
2023/04/25 08:09:56;;;;;;;26.23;18.00;;;17.10;99.90;;;;;;5078067;28;20040;-72
2023/04/25 08:12:28;;;;;;;28.23;19.42;;;17.40;99.90;;;;;;5074646;28;20127;-73
2023/04/25 08:14:58;;;;;;;27.27;22.08;;;17.50;99.90;;;;;;5068416;28;20040;-74
2023/04/25 08:17:31;;;;;;;30.67;23.90;;;17.60;99.90;;;;;;5064358;28;20040;-73
2023/04/25 08:19:59;;;;;;;31.23;22.70;;;17.90;99.90;;;;;;5063745;28;20075;-72
2023/04/25 08:22:31;;;;;;;26.40;21.30;;;17.80;99.90;;;;;;5063133;28;20053;-72
2023/04/25 08:25:15;;;;;;;27.67;21.60;;;17.40;99.90;;;;;;5052036;28;20106;-74
2023/04/25 08:27:44;;;;;;;25.70;20.92;;;17.10;99.90;;;;;;5041035;28;20132;-74
2023/04/25 08:30:12;;;;;;;23.50;16.23;;;16.70;99.90;;;;;;5038468;28;20509;-72
2023/04/25 08:32:44;;;;;;;23.63;16.63;;;16.80;99.90;;;;;;5038820;28;20036;-73
2023/04/25 08:35:30;;;;;;;24.00;16.15;;;16.80;99.90;;;;;;5040225;28;20155;-73
2023/04/25 08:38:00;;;;;;;24.42;15.40;;;16.80;99.90;;;;;;5038672;28;20118;-73
2023/04/25 08:40:29;;;;;;;22.42;15.15;;;16.90;99.90;;;;;;5037473;28;20525;-73
2023/04/25 08:43:11;;;;;;;23.10;16.83;;;17.40;99.90;;;;;;5039040;28;20049;-73
2023/04/25 08:45:41;;;;;;;21.55;13.43;;;17.60;99.90;;;;;;5038236;28;20043;-73
2023/04/25 08:48:13;;;;;;;20.23;13.05;;;17.50;95.50;;;;;;5039481;28;20132;-73
2023/04/25 08:50:41;;;;;;;23.35;12.80;;;17.50;94.70;;;;;;5039414;28;20068;-73
2023/04/25 08:53:16;;;;;;;19.23;12.27;;;17.70;93.10;;;;;;5054866;28;20057;-71
2023/04/25 08:55:47;;;;;;;18.85;10.88;;;17.90;91.70;;;;;;5040360;28;20076;-72
2023/04/25 08:58:15;;;;;;;13.90;10.43;;;18.20;89.20;;;;;;5054044;28;20056;-72
2023/04/25 09:00:43;;;;;;;15.80;10.23;;;18.30;87.40;;;;;;5045424;28;20072;-72
2023/04/25 09:03:12;;;;;;;15.65;10.20;;;18.30;84.40;;;;;;5043318;28;20041;-73
2023/04/25 09:05:41;;;;;;;12.35;8.57;;;18.40;82.60;;;;;;5056352;28;20098;-72
2023/04/25 09:08:11;;;;;;;13.13;8.70;;;18.00;81.40;;;;;;5044275;28;20037;-71
2023/04/25 09:10:39;;;;;;;10.73;8.13;;;17.50;81.90;;;;;;5040073;28;20041;-72
2023/04/25 09:13:10;;;;;;;9.80;7.32;;;17.10;83.00;;;;;;5039852;28;20068;-72
2023/04/25 09:15:58;;;;;;;11.65;7.45;;;17.00;84.80;;;;;;5041654;28;20046;-72
2023/04/25 09:18:44;;;;;;;11.98;8.07;;;16.60;84.00;;;;;;5042078;28;20048;-73
2023/04/25 09:21:13;;;;;;;15.85;8.52;;;16.60;86.20;;;;;;5037389;28;20041;-72
2023/04/25 09:23:45;;;;;;;9.25;5.95;;;16.90;87.00;;;;;;5037337;28;20037;-75
2023/04/25 09:26:16;;;;;;;11.70;7.55;;;17.40;83.90;;;;;;5069326;28;20095;-73
2023/04/25 09:28:45;;;;;;;8.63;6.57;;;17.50;80.10;;;;;;5048278;28;20045;-75
2023/04/25 09:31:24;;;;;;;8.38;4.78;;;17.00;79.00;;;;;;5048186;28;20041;-73
2023/04/25 09:34:00;;;;;;;8.38;5.22;;;16.60;80.70;;;;;;5048837;28;20148;-74
2023/04/25 09:36:31;;;;;;;12.27;7.47;;;16.50;81.00;;;;;;5048926;28;20040;-74
2023/04/25 09:39:16;;;;;;;8.55;6.00;;;16.40;82.40;;;;;;5051843;28;20049;-74
2023/04/25 09:41:55;;;;;;;7.90;3.90;;;16.20;82.20;;;;;;5052971;28;20068;-74
2023/04/25 09:44:25;;;;;;;8.30;3.63;;;16.10;84.10;;;;;;5049397;28;20095;-74
2023/04/25 09:46:54;;;;;;;7.13;4.35;;;16.20;85.50;;;;;;5051084;28;20620;-74
2023/04/25 09:49:25;;;;;;;5.93;4.13;;;16.50;86.00;;;;;;5049373;28;20048;-74
2023/04/25 09:52:06;;;;;;;8.13;4.95;;;17.10;83.90;;;;;;5074371;28;20037;-74
2023/04/25 09:54:45;;;;;;;5.60;3.90;;;17.50;82.00;;;;;;5049457;28;20400;-74
2023/04/25 09:57:18;;;;;;;8.38;5.63;;;17.80;78.90;;;;;;5076078;28;20048;-74
2023/04/25 09:59:47;;;;;;;6.35;4.35;;;18.10;76.80;;;;;;5047535;28;20494;-76
2023/04/25 10:02:17;;;;;;;8.48;4.97;;;18.10;73.00;;;;;;5049337;28;20455;-76
2023/04/25 10:04:52;;;;;;;7.05;4.38;;;18.00;71.80;;;;;;5071525;28;20037;-78
2023/04/25 10:07:32;;;;;;;5.00;3.10;;;18.00;71.90;;;;;;5071754;28;20037;-74
2023/04/25 10:10:04;;;;;;;5.85;3.83;;;18.10;69.50;;;;;;5064081;28;20051;-74
2023/04/25 10:12:33;;;;;;;7.07;4.13;;;18.30;69.80;;;;;;5055097;28;20110;-72
2023/04/25 10:15:01;;;;;;;9.15;4.38;;;18.30;67.40;;;;;;5050830;28;20576;-75
2023/04/25 10:17:29;;;;;;;7.85;3.92;;;18.30;66.10;;;;;;5050971;28;20072;-78
2023/04/25 10:19:57;;;;;;;8.27;4.40;;;18.10;66.20;;;;;;5049722;28;20975;-75
2023/04/25 10:22:31;;;;;;;10.52;4.32;;;18.10;66.50;;;;;;5047175;28;20045;-75
2023/04/25 10:24:59;;;;;;;6.63;3.55;;;18.20;66.10;;;;;;5050337;28;20059;-76
2023/04/25 10:27:29;;;;;;;8.18;3.33;;;18.30;65.10;;;;;;5060858;28;20029;-74
2023/04/25 10:30:04;;;;;;;9.85;4.78;;;18.20;64.20;;;;;;5059164;28;20381;-73
2023/04/25 10:32:32;;;;;;;6.55;3.20;;;18.40;64.50;;;;;;5061582;28;20037;-75
2023/04/25 10:35:11;;;;;;;3.88;2.20;;;19.00;63.70;;;;;;5059139;28;20049;-74
2023/04/25 10:37:40;;;;;;;9.15;5.72;;;19.30;60.90;;;;;;5063275;28;20045;-76
2023/04/25 10:40:10;;;;;;;9.77;5.32;;;19.30;58.50;;;;;;5060719;28;20045;-74
2023/04/25 10:42:42;;;;;;;7.05;3.60;;;19.10;57.40;;;;;;5059281;28;20055;-74
2023/04/25 10:45:10;;;;;;;4.65;2.17;;;19.00;58.20;;;;;;5058410;28;20576;-74
2023/04/25 10:47:44;;;;;;;6.82;2.38;;;18.80;58.00;;;;;;5060765;28;20091;-74
2023/04/25 10:50:12;;;;;;;6.13;3.75;;;18.50;57.40;;;;;;5061671;28;20064;-76
2023/04/25 10:52:40;;;;;;;8.80;5.00;;;18.30;58.20;;;;;;5060334;28;20049;-73
2023/04/25 10:55:09;;;;;;;5.53;2.40;;;18.20;59.20;;;;;;5059042;28;20041;-75
2023/04/25 10:57:41;;;;;;;3.95;2.08;;;17.90;58.80;;;;;;5059014;28;20065;-75
2023/04/25 11:00:15;;;;;;;5.05;2.35;;;18.00;59.10;;;;;;5059111;28;20131;-74
2023/04/25 11:02:44;;;;;;;3.10;2.00;;;18.10;59.30;;;;;;5057386;28;20040;-74
2023/04/25 11:05:22;;;;;;;5.30;2.90;;;18.10;59.80;;;;;;5055306;28;20033;-74
2023/04/25 11:07:52;;;;;;;3.88;2.08;;;18.30;60.30;;;;;;5053778;28;20052;-75
2023/04/25 11:10:20;;;;;;;11.63;3.67;;;18.20;59.40;;;;;;5061300;28;20539;-76
2023/04/25 11:12:49;;;;;;;6.07;2.95;;;18.40;59.50;;;;;;5065796;28;20041;-75
2023/04/25 11:15:17;;;;;;;6.63;3.30;;;18.70;59.20;;;;;;5059233;28;20041;-75
2023/04/25 11:17:46;;;;;;;6.85;4.47;;;18.80;58.60;;;;;;5057573;28;20563;-74
2023/04/25 11:20:15;;;;;;;3.88;2.30;;;19.00;57.80;;;;;;5059750;28;20143;-77
2023/04/25 11:22:44;;;;;;;2.88;1.80;;;18.80;56.30;;;;;;5059462;28;20072;-74
2023/04/25 11:25:13;;;;;;;5.32;2.53;;;18.80;54.70;;;;;;5066577;28;20094;-76
2023/04/25 11:27:52;;;;;;;8.65;2.50;;;19.10;54.60;;;;;;5077179;28;20628;-75
2023/04/25 11:30:21;;;;;;;6.10;2.72;;;19.30;53.90;;;;;;5078522;28;20097;-75
2023/04/25 11:32:51;;;;;;;5.40;2.17;;;19.50;52.90;;;;;;5079102;28;20504;-78
2023/04/25 11:35:19;;;;;;;12.38;8.18;;;19.60;52.40;;;;;;5078073;28;20105;-75
2023/04/25 11:37:47;;;;;;;3.70;2.53;;;19.10;51.80;;;;;;5080896;28;20044;-76
2023/04/25 11:40:14;;;;;;;4.07;2.53;;;18.80;51.30;;;;;;5068016;28;20040;-76
2023/04/25 11:42:46;;;;;;;8.50;4.50;;;18.60;52.20;;;;;;5062292;28;20092;-72
2023/04/25 11:45:18;;;;;;;4.32;2.08;;;18.20;51.80;;;;;;5078041;28;20127;-73
2023/04/25 11:47:46;;;;;;;4.60;2.30;;;17.50;52.20;;;;;;5081770;28;20045;-74
2023/04/25 11:50:14;;;;;;;7.38;5.68;;;17.10;52.70;;;;;;5080291;28;20045;-73
2023/04/25 11:52:44;;;;;;;6.53;2.80;;;17.00;54.00;;;;;;5077955;28;20034;-74
2023/04/25 11:55:14;;;;;;;5.82;3.22;;;16.90;54.50;;;;;;5077289;28;20098;-74
2023/04/25 11:57:43;;;;;;;4.57;2.20;;;17.10;54.60;;;;;;5078022;28;20037;-77
2023/04/25 12:00:14;;;;;;;3.03;1.73;;;17.30;54.40;;;;;;5078763;28;20044;-75
2023/04/25 12:02:44;;;;;;;5.05;2.78;;;17.20;53.70;;;;;;5081872;28;21213;-74
2023/04/25 12:05:13;;;;;;;7.90;2.80;;;17.50;53.70;;;;;;5086626;28;20025;-75
2023/04/25 12:07:42;;;;;;;8.63;5.47;;;17.70;52.80;;;;;;5085176;28;20036;-75
2023/04/25 12:10:12;;;;;;;8.18;3.10;;;18.00;52.80;;;;;;5085167;28;20059;-74
2023/04/25 12:12:43;;;;;;;8.02;2.90;;;18.20;52.80;;;;;;5079019;28;20060;-74
2023/04/25 12:15:17;;;;;;;3.95;2.30;;;18.40;53.00;;;;;;5080055;28;20101;-75
2023/04/25 12:17:48;;;;;;;4.72;2.40;;;18.30;53.50;;;;;;5080123;28;20067;-74
2023/04/25 12:20:19;;;;;;;5.05;2.40;;;18.30;54.30;;;;;;5079460;28;20048;-74
2023/04/25 12:22:48;;;;;;;5.30;3.20;;;18.40;55.00;;;;;;5081697;28;20052;-74
2023/04/25 12:25:35;;;;;;;8.15;4.70;;;18.40;55.30;;;;;;5077532;28;20140;-73
2023/04/25 12:28:14;;;;;;;6.47;3.05;;;18.50;55.00;;;;;;5076429;28;20079;-73
2023/04/25 12:30:58;;;;;;;8.00;2.28;;;18.70;54.50;;;;;;5076558;28;20033;-72
2023/04/25 12:33:28;;;;;;;4.82;2.10;;;18.80;54.00;;;;;;5078432;28;20044;-74
2023/04/25 12:35:57;;;;;;;6.75;3.20;;;18.70;53.30;;;;;;5081099;28;20068;-73
2023/04/25 12:38:29;;;;;;;6.20;2.67;;;18.60;53.60;;;;;;5081060;28;20036;-73
2023/04/25 12:40:56;;;;;;;7.22;3.40;;;18.50;53.50;;;;;;5089584;28;20076;-72
2023/04/25 12:43:24;;;;;;;6.78;3.88;;;18.30;53.80;;;;;;5079048;28;20036;-73
2023/04/25 12:45:52;;;;;;;6.05;2.92;;;18.30;54.00;;;;;;5079986;28;20071;-75
2023/04/25 12:48:20;;;;;;;6.82;3.30;;;18.00;54.50;;;;;;5077003;28;20044;-72
2023/04/25 12:50:51;;;;;;;6.25;3.05;;;17.90;55.20;;;;;;5078734;28;20052;-73
2023/04/25 12:53:21;;;;;;;7.05;4.28;;;18.00;55.30;;;;;;5081473;28;20412;-72
2023/04/25 12:55:48;;;;;;;5.85;3.90;;;18.40;55.50;;;;;;5060176;28;20089;-74
2023/04/25 12:58:17;;;;;;;8.82;5.18;;;18.80;54.70;;;;;;5079941;28;20044;-74
2023/04/25 13:00:44;;;;;;;8.90;4.75;;;19.10;54.80;;;;;;5087010;28;20041;-74
2023/04/25 13:03:12;;;;;;;5.60;3.92;;;19.40;53.20;;;;;;5096976;28;20059;-73
2023/04/25 13:05:40;;;;;;;7.30;4.38;;;19.60;51.80;;;;;;5095961;28;20060;-73